sensor_id;sensor_type;location;lat;lon;timestamp;P1;durP1;ratioP1;P2;durP2;ratioP2
21110;SDS011;10713;51.912;4.494;2022-12-18T00:01:26;124.75;;;32.92;;
21110;SDS011;10713;51.912;4.494;2022-12-18T00:03:55;103.55;;;29.25;;
21110;SDS011;10713;51.912;4.494;2022-12-18T00:06:21;94.95;;;27.98;;
21110;SDS011;10713;51.912;4.494;2022-12-18T00:08:47;83.05;;;25.65;;
21110;SDS011;10713;51.912;4.494;2022-12-18T00:11:14;114.57;;;29.48;;
21110;SDS011;10713;51.912;4.494;2022-12-18T00:13:41;86.15;;;25.55;;
21110;SDS011;10713;51.912;4.494;2022-12-18T00:16:07;101.57;;;28.45;;
21110;SDS011;10713;51.912;4.494;2022-12-18T00:18:35;113.53;;;30.60;;
21110;SDS011;10713;51.912;4.494;2022-12-18T00:21:02;98.47;;;29.92;;
21110;SDS011;10713;51.912;4.494;2022-12-18T00:23:29;91.95;;;25.48;;
21110;SDS011;10713;51.912;4.494;2022-12-18T00:25:58;110.78;;;30.73;;
21110;SDS011;10713;51.912;4.494;2022-12-18T00:28:24;88.28;;;24.67;;
21110;SDS011;10713;51.912;4.494;2022-12-18T00:30:50;67.43;;;17.27;;
21110;SDS011;10713;51.912;4.494;2022-12-18T00:33:16;129.10;;;32.15;;
21110;SDS011;10713;51.912;4.494;2022-12-18T00:35:42;116.70;;;30.88;;
21110;SDS011;10713;51.912;4.494;2022-12-18T00:38:07;92.85;;;24.13;;
21110;SDS011;10713;51.912;4.494;2022-12-18T00:40:33;71.85;;;22.05;;
21110;SDS011;10713;51.912;4.494;2022-12-18T00:42:58;71.68;;;21.60;;
21110;SDS011;10713;51.912;4.494;2022-12-18T00:45:28;111.82;;;29.15;;
21110;SDS011;10713;51.912;4.494;2022-12-18T00:47:54;114.05;;;29.02;;
21110;SDS011;10713;51.912;4.494;2022-12-18T00:50:21;107.63;;;26.80;;
21110;SDS011;10713;51.912;4.494;2022-12-18T00:52:47;117.97;;;32.25;;
21110;SDS011;10713;51.912;4.494;2022-12-18T00:55:13;104.90;;;27.45;;
21110;SDS011;10713;51.912;4.494;2022-12-18T00:57:39;97.05;;;27.25;;
21110;SDS011;10713;51.912;4.494;2022-12-18T01:00:05;118.40;;;30.20;;
21110;SDS011;10713;51.912;4.494;2022-12-18T01:02:33;93.13;;;26.73;;
21110;SDS011;10713;51.912;4.494;2022-12-18T01:04:58;126.10;;;31.50;;
21110;SDS011;10713;51.912;4.494;2022-12-18T01:07:24;82.60;;;21.75;;
21110;SDS011;10713;51.912;4.494;2022-12-18T01:09:49;59.97;;;15.85;;
21110;SDS011;10713;51.912;4.494;2022-12-18T01:12:14;97.75;;;27.80;;
21110;SDS011;10713;51.912;4.494;2022-12-18T01:14:40;119.22;;;29.90;;
21110;SDS011;10713;51.912;4.494;2022-12-18T01:17:05;108.18;;;28.17;;
21110;SDS011;10713;51.912;4.494;2022-12-18T01:19:30;95.85;;;26.40;;
21110;SDS011;10713;51.912;4.494;2022-12-18T01:21:56;99.13;;;26.45;;
21110;SDS011;10713;51.912;4.494;2022-12-18T01:24:21;96.85;;;25.23;;
21110;SDS011;10713;51.912;4.494;2022-12-18T01:26:47;64.57;;;17.45;;
21110;SDS011;10713;51.912;4.494;2022-12-18T01:29:12;106.22;;;29.17;;
21110;SDS011;10713;51.912;4.494;2022-12-18T01:31:38;108.88;;;28.67;;
21110;SDS011;10713;51.912;4.494;2022-12-18T01:34:04;79.82;;;24.55;;
21110;SDS011;10713;51.912;4.494;2022-12-18T01:36:31;33.22;;;11.70;;
21110;SDS011;10713;51.912;4.494;2022-12-18T01:39:02;106.55;;;25.85;;
21110;SDS011;10713;51.912;4.494;2022-12-18T01:41:31;67.30;;;21.58;;
21110;SDS011;10713;51.912;4.494;2022-12-18T01:50:13;115.53;;;30.35;;
21110;SDS011;10713;51.912;4.494;2022-12-18T01:52:39;93.85;;;25.35;;
21110;SDS011;10713;51.912;4.494;2022-12-18T01:55:08;107.63;;;30.55;;
21110;SDS011;10713;51.912;4.494;2022-12-18T01:57:34;104.45;;;29.02;;
21110;SDS011;10713;51.912;4.494;2022-12-18T02:00:03;97.68;;;27.65;;
21110;SDS011;10713;51.912;4.494;2022-12-18T02:02:32;73.28;;;21.38;;
21110;SDS011;10713;51.912;4.494;2022-12-18T02:04:57;98.63;;;27.60;;
21110;SDS011;10713;51.912;4.494;2022-12-18T02:07:25;83.22;;;24.13;;
21110;SDS011;10713;51.912;4.494;2022-12-18T02:15:19;93.50;;;28.38;;
21110;SDS011;10713;51.912;4.494;2022-12-18T02:17:54;91.80;;;25.55;;
21110;SDS011;10713;51.912;4.494;2022-12-18T02:20:29;103.88;;;27.30;;
21110;SDS011;10713;51.912;4.494;2022-12-18T02:28:35;103.53;;;29.73;;
21110;SDS011;10713;51.912;4.494;2022-12-18T02:31:05;94.60;;;28.35;;
21110;SDS011;10713;51.912;4.494;2022-12-18T02:33:35;98.97;;;30.10;;
21110;SDS011;10713;51.912;4.494;2022-12-18T02:36:02;104.32;;;29.35;;
21110;SDS011;10713;51.912;4.494;2022-12-18T02:38:29;105.43;;;30.60;;
21110;SDS011;10713;51.912;4.494;2022-12-18T02:40:56;108.13;;;29.92;;
21110;SDS011;10713;51.912;4.494;2022-12-18T02:43:22;99.10;;;28.80;;
21110;SDS011;10713;51.912;4.494;2022-12-18T02:45:48;91.80;;;28.88;;
21110;SDS011;10713;51.912;4.494;2022-12-18T02:48:24;85.40;;;25.13;;
21110;SDS011;10713;51.912;4.494;2022-12-18T02:51:53;84.47;;;25.20;;
21110;SDS011;10713;51.912;4.494;2022-12-18T02:53:58;79.57;;;27.15;;
21110;SDS011;10713;51.912;4.494;2022-12-18T02:56:42;92.82;;;28.02;;
21110;SDS011;10713;51.912;4.494;2022-12-18T02:59:13;83.45;;;27.67;;
21110;SDS011;10713;51.912;4.494;2022-12-18T03:04:50;94.47;;;26.95;;
21110;SDS011;10713;51.912;4.494;2022-12-18T03:07:35;88.95;;;26.40;;
21110;SDS011;10713;51.912;4.494;2022-12-18T03:10:04;58.05;;;18.27;;
21110;SDS011;10713;51.912;4.494;2022-12-18T03:12:35;91.38;;;26.90;;
21110;SDS011;10713;51.912;4.494;2022-12-18T03:17:49;72.20;;;21.48;;
21110;SDS011;10713;51.912;4.494;2022-12-18T03:20:20;89.65;;;25.13;;
21110;SDS011;10713;51.912;4.494;2022-12-18T03:22:51;101.03;;;25.92;;
21110;SDS011;10713;51.912;4.494;2022-12-18T03:25:20;78.80;;;24.55;;
21110;SDS011;10713;51.912;4.494;2022-12-18T03:27:47;76.38;;;24.73;;
21110;SDS011;10713;51.912;4.494;2022-12-18T03:30:15;86.28;;;24.27;;
21110;SDS011;10713;51.912;4.494;2022-12-18T03:35:17;100.22;;;28.23;;
21110;SDS011;10713;51.912;4.494;2022-12-18T03:37:46;86.05;;;26.40;;
21110;SDS011;10713;51.912;4.494;2022-12-18T03:40:11;98.18;;;28.45;;
21110;SDS011;10713;51.912;4.494;2022-12-18T03:42:40;89.57;;;25.80;;
21110;SDS011;10713;51.912;4.494;2022-12-18T03:50:19;78.60;;;23.90;;
21110;SDS011;10713;51.912;4.494;2022-12-18T03:52:55;94.75;;;26.67;;
21110;SDS011;10713;51.912;4.494;2022-12-18T03:55:26;94.13;;;28.00;;
21110;SDS011;10713;51.912;4.494;2022-12-18T03:57:56;86.57;;;26.45;;
21110;SDS011;10713;51.912;4.494;2022-12-18T04:00:22;98.32;;;28.30;;
21110;SDS011;10713;51.912;4.494;2022-12-18T04:02:49;70.35;;;22.08;;
21110;SDS011;10713;51.912;4.494;2022-12-18T04:05:18;99.22;;;27.65;;
21110;SDS011;10713;51.912;4.494;2022-12-18T04:07:45;91.00;;;26.85;;
21110;SDS011;10713;51.912;4.494;2022-12-18T04:10:13;88.75;;;27.50;;
21110;SDS011;10713;51.912;4.494;2022-12-18T04:12:39;100.43;;;28.80;;
21110;SDS011;10713;51.912;4.494;2022-12-18T04:15:05;102.63;;;28.63;;
21110;SDS011;10713;51.912;4.494;2022-12-18T04:17:31;105.05;;;28.73;;
21110;SDS011;10713;51.912;4.494;2022-12-18T04:19:57;108.32;;;28.98;;
21110;SDS011;10713;51.912;4.494;2022-12-18T04:22:22;97.13;;;27.45;;
21110;SDS011;10713;51.912;4.494;2022-12-18T04:24:47;97.70;;;27.40;;
21110;SDS011;10713;51.912;4.494;2022-12-18T04:27:13;95.47;;;26.77;;
21110;SDS011;10713;51.912;4.494;2022-12-18T04:29:38;90.60;;;25.83;;
21110;SDS011;10713;51.912;4.494;2022-12-18T04:32:04;89.88;;;27.10;;
21110;SDS011;10713;51.912;4.494;2022-12-18T04:34:30;70.22;;;23.63;;
21110;SDS011;10713;51.912;4.494;2022-12-18T04:36:55;91.47;;;25.05;;
21110;SDS011;10713;51.912;4.494;2022-12-18T04:39:21;83.57;;;26.50;;
21110;SDS011;10713;51.912;4.494;2022-12-18T04:41:46;86.47;;;26.45;;
21110;SDS011;10713;51.912;4.494;2022-12-18T04:44:11;92.70;;;27.52;;
21110;SDS011;10713;51.912;4.494;2022-12-18T04:46:37;80.22;;;25.73;;
21110;SDS011;10713;51.912;4.494;2022-12-18T04:49:02;82.95;;;24.92;;
21110;SDS011;10713;51.912;4.494;2022-12-18T04:51:27;81.00;;;25.13;;
21110;SDS011;10713;51.912;4.494;2022-12-18T04:53:53;75.38;;;26.15;;
21110;SDS011;10713;51.912;4.494;2022-12-18T04:56:18;81.82;;;25.70;;
21110;SDS011;10713;51.912;4.494;2022-12-18T04:58:44;78.82;;;24.70;;
21110;SDS011;10713;51.912;4.494;2022-12-18T05:01:11;79.63;;;25.65;;
21110;SDS011;10713;51.912;4.494;2022-12-18T05:03:40;75.75;;;23.83;;
21110;SDS011;10713;51.912;4.494;2022-12-18T05:06:05;81.60;;;23.67;;
21110;SDS011;10713;51.912;4.494;2022-12-18T05:08:31;72.65;;;23.90;;
21110;SDS011;10713;51.912;4.494;2022-12-18T05:11:00;80.95;;;23.17;;
21110;SDS011;10713;51.912;4.494;2022-12-18T05:13:40;68.40;;;21.80;;
21110;SDS011;10713;51.912;4.494;2022-12-18T05:16:06;76.72;;;22.58;;
21110;SDS011;10713;51.912;4.494;2022-12-18T05:18:33;71.90;;;23.25;;
21110;SDS011;10713;51.912;4.494;2022-12-18T05:20:59;59.72;;;21.35;;
21110;SDS011;10713;51.912;4.494;2022-12-18T05:23:24;66.53;;;21.67;;
21110;SDS011;10713;51.912;4.494;2022-12-18T05:26:00;70.10;;;23.85;;
21110;SDS011;10713;51.912;4.494;2022-12-18T05:28:27;67.15;;;22.02;;
21110;SDS011;10713;51.912;4.494;2022-12-18T05:30:55;64.55;;;21.45;;
21110;SDS011;10713;51.912;4.494;2022-12-18T05:33:22;61.30;;;20.52;;
21110;SDS011;10713;51.912;4.494;2022-12-18T05:35:52;64.80;;;21.83;;
21110;SDS011;10713;51.912;4.494;2022-12-18T05:38:19;68.40;;;22.60;;
21110;SDS011;10713;51.912;4.494;2022-12-18T05:40:45;69.65;;;21.50;;
21110;SDS011;10713;51.912;4.494;2022-12-18T05:43:12;63.92;;;20.33;;
21110;SDS011;10713;51.912;4.494;2022-12-18T05:45:37;60.75;;;22.27;;
21110;SDS011;10713;51.912;4.494;2022-12-18T05:48:04;66.53;;;21.40;;
21110;SDS011;10713;51.912;4.494;2022-12-18T05:50:30;58.90;;;21.42;;
21110;SDS011;10713;51.912;4.494;2022-12-18T05:52:55;65.57;;;20.88;;
21110;SDS011;10713;51.912;4.494;2022-12-18T05:55:20;63.08;;;22.40;;
21110;SDS011;10713;51.912;4.494;2022-12-18T05:57:46;58.67;;;19.20;;
21110;SDS011;10713;51.912;4.494;2022-12-18T06:00:12;59.22;;;19.63;;
21110;SDS011;10713;51.912;4.494;2022-12-18T06:02:37;57.53;;;21.38;;
21110;SDS011;10713;51.912;4.494;2022-12-18T06:05:03;54.22;;;20.23;;
21110;SDS011;10713;51.912;4.494;2022-12-18T06:07:29;63.65;;;20.88;;
21110;SDS011;10713;51.912;4.494;2022-12-18T06:09:54;61.72;;;21.05;;
21110;SDS011;10713;51.912;4.494;2022-12-18T06:12:19;58.95;;;22.33;;
21110;SDS011;10713;51.912;4.494;2022-12-18T06:14:44;37.08;;;14.18;;
21110;SDS011;10713;51.912;4.494;2022-12-18T06:17:10;51.58;;;16.60;;
21110;SDS011;10713;51.912;4.494;2022-12-18T06:19:35;47.42;;;18.40;;
21110;SDS011;10713;51.912;4.494;2022-12-18T06:22:01;50.13;;;18.80;;
21110;SDS011;10713;51.912;4.494;2022-12-18T06:24:26;68.32;;;19.85;;
21110;SDS011;10713;51.912;4.494;2022-12-18T06:26:51;38.40;;;14.95;;
21110;SDS011;10713;51.912;4.494;2022-12-18T06:29:17;44.47;;;16.30;;
21110;SDS011;10713;51.912;4.494;2022-12-18T06:31:42;43.42;;;16.73;;
21110;SDS011;10713;51.912;4.494;2022-12-18T06:34:07;52.47;;;18.05;;
21110;SDS011;10713;51.912;4.494;2022-12-18T06:36:33;44.55;;;18.98;;
21110;SDS011;10713;51.912;4.494;2022-12-18T06:38:58;47.63;;;16.45;;
21110;SDS011;10713;51.912;4.494;2022-12-18T06:41:24;47.38;;;17.83;;
21110;SDS011;10713;51.912;4.494;2022-12-18T06:43:49;35.20;;;16.42;;
21110;SDS011;10713;51.912;4.494;2022-12-18T06:46:15;48.28;;;17.80;;
21110;SDS011;10713;51.912;4.494;2022-12-18T06:48:40;50.08;;;15.82;;
21110;SDS011;10713;51.912;4.494;2022-12-18T06:51:06;37.65;;;13.10;;
21110;SDS011;10713;51.912;4.494;2022-12-18T06:53:32;38.50;;;14.50;;
21110;SDS011;10713;51.912;4.494;2022-12-18T06:56:05;42.65;;;16.42;;
21110;SDS011;10713;51.912;4.494;2022-12-18T06:58:32;43.63;;;15.90;;
21110;SDS011;10713;51.912;4.494;2022-12-18T07:01:04;53.10;;;18.25;;
21110;SDS011;10713;51.912;4.494;2022-12-18T07:03:32;39.13;;;15.27;;
21110;SDS011;10713;51.912;4.494;2022-12-18T07:05:57;39.88;;;15.18;;
21110;SDS011;10713;51.912;4.494;2022-12-18T07:08:23;43.97;;;16.48;;
21110;SDS011;10713;51.912;4.494;2022-12-18T07:10:48;40.63;;;15.95;;
21110;SDS011;10713;51.912;4.494;2022-12-18T07:13:15;41.58;;;15.98;;
21110;SDS011;10713;51.912;4.494;2022-12-18T07:15:41;46.92;;;16.27;;
21110;SDS011;10713;51.912;4.494;2022-12-18T07:18:06;46.60;;;15.23;;
21110;SDS011;10713;51.912;4.494;2022-12-18T07:20:31;37.30;;;13.45;;
21110;SDS011;10713;51.912;4.494;2022-12-18T07:22:57;41.95;;;15.73;;
21110;SDS011;10713;51.912;4.494;2022-12-18T07:25:22;43.90;;;15.13;;
21110;SDS011;10713;51.912;4.494;2022-12-18T07:27:48;39.13;;;14.55;;
21110;SDS011;10713;51.912;4.494;2022-12-18T07:30:13;33.45;;;13.48;;
21110;SDS011;10713;51.912;4.494;2022-12-18T07:32:38;41.33;;;14.18;;
21110;SDS011;10713;51.912;4.494;2022-12-18T07:35:04;44.35;;;17.13;;
21110;SDS011;10713;51.912;4.494;2022-12-18T07:37:29;41.92;;;16.05;;
21110;SDS011;10713;51.912;4.494;2022-12-18T07:39:54;37.83;;;13.95;;
21110;SDS011;10713;51.912;4.494;2022-12-18T07:42:20;39.78;;;15.35;;
21110;SDS011;10713;51.912;4.494;2022-12-18T07:44:58;34.35;;;12.18;;
21110;SDS011;10713;51.912;4.494;2022-12-18T07:47:24;43.20;;;16.20;;
21110;SDS011;10713;51.912;4.494;2022-12-18T07:49:50;35.55;;;11.80;;
21110;SDS011;10713;51.912;4.494;2022-12-18T07:52:15;28.70;;;12.07;;
21110;SDS011;10713;51.912;4.494;2022-12-18T07:54:41;36.30;;;14.07;;
21110;SDS011;10713;51.912;4.494;2022-12-18T07:57:06;42.05;;;16.10;;
21110;SDS011;10713;51.912;4.494;2022-12-18T07:59:33;42.30;;;14.93;;
21110;SDS011;10713;51.912;4.494;2022-12-18T08:01:58;38.35;;;15.07;;
21110;SDS011;10713;51.912;4.494;2022-12-18T08:04:23;41.25;;;17.05;;
21110;SDS011;10713;51.912;4.494;2022-12-18T08:06:49;35.05;;;13.32;;
21110;SDS011;10713;51.912;4.494;2022-12-18T08:09:15;40.03;;;15.57;;
21110;SDS011;10713;51.912;4.494;2022-12-18T08:11:40;34.65;;;13.98;;
21110;SDS011;10713;51.912;4.494;2022-12-18T08:14:05;37.40;;;14.77;;
21110;SDS011;10713;51.912;4.494;2022-12-18T08:16:30;32.78;;;13.90;;
21110;SDS011;10713;51.912;4.494;2022-12-18T08:18:56;38.65;;;15.50;;
21110;SDS011;10713;51.912;4.494;2022-12-18T08:21:23;36.45;;;15.05;;
21110;SDS011;10713;51.912;4.494;2022-12-18T08:23:51;28.88;;;13.02;;
21110;SDS011;10713;51.912;4.494;2022-12-18T08:26:19;40.50;;;16.17;;
21110;SDS011;10713;51.912;4.494;2022-12-18T08:28:44;36.97;;;14.95;;
21110;SDS011;10713;51.912;4.494;2022-12-18T08:31:10;36.03;;;14.27;;
21110;SDS011;10713;51.912;4.494;2022-12-18T08:33:36;39.10;;;15.85;;
21110;SDS011;10713;51.912;4.494;2022-12-18T08:36:03;33.38;;;14.50;;
21110;SDS011;10713;51.912;4.494;2022-12-18T08:38:29;33.53;;;14.45;;
21110;SDS011;10713;51.912;4.494;2022-12-18T08:41:00;40.70;;;15.75;;
21110;SDS011;10713;51.912;4.494;2022-12-18T08:43:30;40.22;;;14.52;;
21110;SDS011;10713;51.912;4.494;2022-12-18T08:46:15;33.95;;;14.63;;
21110;SDS011;10713;51.912;4.494;2022-12-18T08:48:41;38.97;;;15.98;;
21110;SDS011;10713;51.912;4.494;2022-12-18T08:51:06;36.95;;;14.15;;
21110;SDS011;10713;51.912;4.494;2022-12-18T08:53:32;33.22;;;14.70;;
21110;SDS011;10713;51.912;4.494;2022-12-18T08:55:57;39.33;;;14.10;;
21110;SDS011;10713;51.912;4.494;2022-12-18T08:58:23;37.58;;;14.18;;
21110;SDS011;10713;51.912;4.494;2022-12-18T09:00:48;34.55;;;12.30;;
21110;SDS011;10713;51.912;4.494;2022-12-18T09:03:14;34.05;;;14.07;;
21110;SDS011;10713;51.912;4.494;2022-12-18T09:05:41;31.55;;;14.10;;
21110;SDS011;10713;51.912;4.494;2022-12-18T09:08:06;39.67;;;14.20;;
21110;SDS011;10713;51.912;4.494;2022-12-18T09:10:32;33.65;;;14.48;;
21110;SDS011;10713;51.912;4.494;2022-12-18T09:12:57;31.52;;;13.20;;
21110;SDS011;10713;51.912;4.494;2022-12-18T09:15:23;22.83;;;9.98;;
21110;SDS011;10713;51.912;4.494;2022-12-18T09:17:48;32.80;;;14.98;;
21110;SDS011;10713;51.912;4.494;2022-12-18T09:20:14;36.20;;;15.27;;
21110;SDS011;10713;51.912;4.494;2022-12-18T09:22:40;32.38;;;13.90;;
21110;SDS011;10713;51.912;4.494;2022-12-18T09:25:06;41.42;;;15.23;;
21110;SDS011;10713;51.912;4.494;2022-12-18T09:27:33;32.42;;;13.27;;
21110;SDS011;10713;51.912;4.494;2022-12-18T09:29:59;32.28;;;15.05;;
21110;SDS011;10713;51.912;4.494;2022-12-18T09:32:24;37.97;;;15.40;;
21110;SDS011;10713;51.912;4.494;2022-12-18T09:34:50;39.50;;;15.57;;
21110;SDS011;10713;51.912;4.494;2022-12-18T09:37:15;40.45;;;15.68;;
21110;SDS011;10713;51.912;4.494;2022-12-18T09:39:40;36.80;;;14.80;;
21110;SDS011;10713;51.912;4.494;2022-12-18T09:42:06;42.53;;;16.67;;
21110;SDS011;10713;51.912;4.494;2022-12-18T09:44:43;30.38;;;14.73;;
21110;SDS011;10713;51.912;4.494;2022-12-18T09:47:56;38.88;;;15.13;;
21110;SDS011;10713;51.912;4.494;2022-12-18T09:50:05;32.78;;;14.25;;
21110;SDS011;10713;51.912;4.494;2022-12-18T09:52:45;33.55;;;12.65;;
21110;SDS011;10713;51.912;4.494;2022-12-18T09:55:17;27.67;;;12.77;;
21110;SDS011;10713;51.912;4.494;2022-12-18T09:57:51;32.90;;;14.85;;
21110;SDS011;10713;51.912;4.494;2022-12-18T10:00:21;33.03;;;14.30;;
21110;SDS011;10713;51.912;4.494;2022-12-18T10:02:49;32.35;;;14.43;;
21110;SDS011;10713;51.912;4.494;2022-12-18T10:05:26;36.97;;;14.18;;
21110;SDS011;10713;51.912;4.494;2022-12-18T10:15:40;33.95;;;15.25;;
21110;SDS011;10713;51.912;4.494;2022-12-18T10:18:21;32.65;;;13.68;;
21110;SDS011;10713;51.912;4.494;2022-12-18T10:20:48;35.58;;;15.15;;
21110;SDS011;10713;51.912;4.494;2022-12-18T10:23:23;30.75;;;14.30;;
21110;SDS011;10713;51.912;4.494;2022-12-18T10:25:52;33.38;;;13.73;;
21110;SDS011;10713;51.912;4.494;2022-12-18T10:28:19;31.98;;;14.48;;
21110;SDS011;10713;51.912;4.494;2022-12-18T10:30:46;32.38;;;12.63;;
21110;SDS011;10713;51.912;4.494;2022-12-18T10:33:21;26.58;;;12.40;;
21110;SDS011;10713;51.912;4.494;2022-12-18T10:35:52;30.98;;;13.63;;
21110;SDS011;10713;51.912;4.494;2022-12-18T10:40:48;30.95;;;12.68;;
21110;SDS011;10713;51.912;4.494;2022-12-18T10:45:58;29.75;;;12.75;;
21110;SDS011;10713;51.912;4.494;2022-12-18T10:48:24;29.40;;;12.88;;
21110;SDS011;10713;51.912;4.494;2022-12-18T10:50:50;35.05;;;14.95;;
21110;SDS011;10713;51.912;4.494;2022-12-18T10:53:24;29.08;;;14.30;;
21110;SDS011;10713;51.912;4.494;2022-12-18T10:55:52;32.28;;;15.20;;
21110;SDS011;10713;51.912;4.494;2022-12-18T11:01:13;30.25;;;13.27;;
21110;SDS011;10713;51.912;4.494;2022-12-18T11:03:58;32.28;;;14.05;;
21110;SDS011;10713;51.912;4.494;2022-12-18T11:06:26;34.00;;;15.18;;
21110;SDS011;10713;51.912;4.494;2022-12-18T11:11:26;33.28;;;14.63;;
21110;SDS011;10713;51.912;4.494;2022-12-18T11:14:02;34.53;;;13.95;;
21110;SDS011;10713;51.912;4.494;2022-12-18T11:16:29;33.65;;;14.70;;
21110;SDS011;10713;51.912;4.494;2022-12-18T11:21:46;28.35;;;13.73;;
21110;SDS011;10713;51.912;4.494;2022-12-18T11:24:49;34.35;;;15.15;;
21110;SDS011;10713;51.912;4.494;2022-12-18T11:27:05;31.52;;;13.90;;
21110;SDS011;10713;51.912;4.494;2022-12-18T11:29:40;23.20;;;11.25;;
21110;SDS011;10713;51.912;4.494;2022-12-18T11:32:48;36.95;;;15.50;;
21110;SDS011;10713;51.912;4.494;2022-12-18T11:35:13;28.48;;;12.30;;
21110;SDS011;10713;51.912;4.494;2022-12-18T11:37:47;29.95;;;14.00;;
21110;SDS011;10713;51.912;4.494;2022-12-18T11:40:20;27.80;;;12.45;;
21110;SDS011;10713;51.912;4.494;2022-12-18T11:45:49;29.73;;;13.60;;
21110;SDS011;10713;51.912;4.494;2022-12-18T11:48:22;33.05;;;14.18;;
21110;SDS011;10713;51.912;4.494;2022-12-18T11:50:55;31.48;;;13.43;;
21110;SDS011;10713;51.912;4.494;2022-12-18T11:53:22;26.08;;;9.20;;
21110;SDS011;10713;51.912;4.494;2022-12-18T11:58:58;23.92;;;11.25;;
21110;SDS011;10713;51.912;4.494;2022-12-18T12:26:20;30.13;;;11.52;;
21110;SDS011;10713;51.912;4.494;2022-12-18T12:29:35;29.92;;;14.25;;
21110;SDS011;10713;51.912;4.494;2022-12-18T12:32:14;32.38;;;13.15;;
21110;SDS011;10713;51.912;4.494;2022-12-18T12:37:58;32.03;;;13.63;;
21110;SDS011;10713;51.912;4.494;2022-12-18T12:40:27;22.75;;;8.63;;
21110;SDS011;10713;51.912;4.494;2022-12-18T12:42:59;32.30;;;14.07;;
21110;SDS011;10713;51.912;4.494;2022-12-18T12:46:00;20.33;;;9.98;;
21110;SDS011;10713;51.912;4.494;2022-12-18T12:48:42;18.55;;;9.43;;
21110;SDS011;10713;51.912;4.494;2022-12-18T12:51:12;26.98;;;11.38;;
21110;SDS011;10713;51.912;4.494;2022-12-18T12:53:41;25.42;;;11.00;;
21110;SDS011;10713;51.912;4.494;2022-12-18T12:56:08;30.60;;;12.80;;
21110;SDS011;10713;51.912;4.494;2022-12-18T12:58:43;28.30;;;12.23;;
21110;SDS011;10713;51.912;4.494;2022-12-18T13:07:28;29.95;;;13.38;;
21110;SDS011;10713;51.912;4.494;2022-12-18T13:13:06;30.35;;;12.80;;
21110;SDS011;10713;51.912;4.494;2022-12-18T13:15:36;34.70;;;13.50;;
21110;SDS011;10713;51.912;4.494;2022-12-18T13:31:59;31.50;;;13.95;;
21110;SDS011;10713;51.912;4.494;2022-12-18T13:36:41;23.65;;;10.32;;
21110;SDS011;10713;51.912;4.494;2022-12-18T13:41:46;16.83;;;7.50;;
21110;SDS011;10713;51.912;4.494;2022-12-18T13:46:57;29.13;;;12.57;;
21110;SDS011;10713;51.912;4.494;2022-12-18T13:49:24;33.33;;;14.63;;
21110;SDS011;10713;51.912;4.494;2022-12-18T13:51:58;28.23;;;11.98;;
21110;SDS011;10713;51.912;4.494;2022-12-18T13:56:53;28.88;;;12.00;;
21110;SDS011;10713;51.912;4.494;2022-12-18T14:01:53;29.27;;;13.10;;
21110;SDS011;10713;51.912;4.494;2022-12-18T14:04:33;28.80;;;13.10;;
21110;SDS011;10713;51.912;4.494;2022-12-18T14:07:16;52.67;;;18.25;;
21110;SDS011;10713;51.912;4.494;2022-12-18T14:09:49;149.73;;;41.50;;
21110;SDS011;10713;51.912;4.494;2022-12-18T14:15:52;78.32;;;25.60;;
21110;SDS011;10713;51.912;4.494;2022-12-18T14:18:01;40.45;;;16.42;;
21110;SDS011;10713;51.912;4.494;2022-12-18T14:20:43;55.33;;;19.42;;
21110;SDS011;10713;51.912;4.494;2022-12-18T14:25:58;42.42;;;15.98;;
21110;SDS011;10713;51.912;4.494;2022-12-18T14:28:24;28.05;;;13.68;;
21110;SDS011;10713;51.912;4.494;2022-12-18T14:30:51;71.57;;;21.90;;
21110;SDS011;10713;51.912;4.494;2022-12-18T14:33:18;35.45;;;13.57;;
21110;SDS011;10713;51.912;4.494;2022-12-18T14:38:37;34.90;;;13.40;;
21110;SDS011;10713;51.912;4.494;2022-12-18T14:41:06;19.58;;;8.32;;
21110;SDS011;10713;51.912;4.494;2022-12-18T14:43:36;28.75;;;11.45;;
21110;SDS011;10713;51.912;4.494;2022-12-18T14:46:25;67.32;;;21.98;;
21110;SDS011;10713;51.912;4.494;2022-12-18T14:49:03;26.20;;;10.93;;
21110;SDS011;10713;51.912;4.494;2022-12-18T14:51:41;46.47;;;17.77;;
21110;SDS011;10713;51.912;4.494;2022-12-18T14:54:17;32.65;;;14.43;;
21110;SDS011;10713;51.912;4.494;2022-12-18T14:56:44;44.15;;;17.27;;
21110;SDS011;10713;51.912;4.494;2022-12-18T14:59:16;27.80;;;12.98;;
21110;SDS011;10713;51.912;4.494;2022-12-18T15:04:23;27.02;;;10.90;;
21110;SDS011;10713;51.912;4.494;2022-12-18T15:09:28;23.52;;;10.18;;
21110;SDS011;10713;51.912;4.494;2022-12-18T15:11:57;38.58;;;15.27;;
21110;SDS011;10713;51.912;4.494;2022-12-18T15:14:35;35.00;;;14.00;;
21110;SDS011;10713;51.912;4.494;2022-12-18T15:17:06;33.58;;;14.82;;
21110;SDS011;10713;51.912;4.494;2022-12-18T15:19:42;24.92;;;10.55;;
21110;SDS011;10713;51.912;4.494;2022-12-18T15:22:28;31.77;;;13.93;;
21110;SDS011;10713;51.912;4.494;2022-12-18T15:24:55;27.40;;;13.23;;
21110;SDS011;10713;51.912;4.494;2022-12-18T15:27:32;23.55;;;10.18;;
21110;SDS011;10713;51.912;4.494;2022-12-18T15:30:02;26.67;;;11.98;;
21110;SDS011;10713;51.912;4.494;2022-12-18T15:32:30;13.95;;;6.78;;
21110;SDS011;10713;51.912;4.494;2022-12-18T15:37:36;28.98;;;14.00;;
21110;SDS011;10713;51.912;4.494;2022-12-18T15:40:02;30.67;;;12.65;;
21110;SDS011;10713;51.912;4.494;2022-12-18T15:42:28;29.52;;;12.25;;
21110;SDS011;10713;51.912;4.494;2022-12-18T15:45:13;27.55;;;12.88;;
21110;SDS011;10713;51.912;4.494;2022-12-18T15:47:38;23.13;;;9.32;;
21110;SDS011;10713;51.912;4.494;2022-12-18T15:50:04;32.03;;;12.32;;
21110;SDS011;10713;51.912;4.494;2022-12-18T15:52:31;18.27;;;7.43;;
21110;SDS011;10713;51.912;4.494;2022-12-18T15:55:05;10.07;;;5.30;;
21110;SDS011;10713;51.912;4.494;2022-12-18T15:57:53;19.00;;;8.27;;
21110;SDS011;10713;51.912;4.494;2022-12-18T16:00:19;24.42;;;10.02;;
21110;SDS011;10713;51.912;4.494;2022-12-18T16:02:44;20.95;;;9.40;;
21110;SDS011;10713;51.912;4.494;2022-12-18T16:05:14;27.48;;;12.95;;
21110;SDS011;10713;51.912;4.494;2022-12-18T16:07:42;29.77;;;12.45;;
21110;SDS011;10713;51.912;4.494;2022-12-18T16:10:08;30.08;;;13.18;;
21110;SDS011;10713;51.912;4.494;2022-12-18T16:12:33;24.48;;;10.07;;
21110;SDS011;10713;51.912;4.494;2022-12-18T16:14:59;22.83;;;10.35;;
21110;SDS011;10713;51.912;4.494;2022-12-18T16:17:24;26.23;;;11.90;;
21110;SDS011;10713;51.912;4.494;2022-12-18T16:19:50;24.15;;;11.57;;
21110;SDS011;10713;51.912;4.494;2022-12-18T16:22:17;33.13;;;15.18;;
21110;SDS011;10713;51.912;4.494;2022-12-18T16:24:45;36.75;;;14.68;;
21110;SDS011;10713;51.912;4.494;2022-12-18T16:27:11;37.88;;;14.98;;
21110;SDS011;10713;51.912;4.494;2022-12-18T16:29:36;30.90;;;11.32;;
21110;SDS011;10713;51.912;4.494;2022-12-18T16:32:01;27.50;;;11.82;;
21110;SDS011;10713;51.912;4.494;2022-12-18T16:34:28;27.45;;;12.40;;
21110;SDS011;10713;51.912;4.494;2022-12-18T16:37:00;23.13;;;10.02;;
21110;SDS011;10713;51.912;4.494;2022-12-18T16:39:28;32.13;;;14.50;;
21110;SDS011;10713;51.912;4.494;2022-12-18T16:41:55;32.70;;;13.40;;
21110;SDS011;10713;51.912;4.494;2022-12-18T16:44:20;32.20;;;12.75;;
21110;SDS011;10713;51.912;4.494;2022-12-18T16:46:46;32.40;;;15.30;;
21110;SDS011;10713;51.912;4.494;2022-12-18T16:49:15;30.00;;;13.73;;